Forum d'échanges consacré aux découvertes avec Google Earth/Maps
 
PortailAccueilGoogle EarthS'enregistrerCarte des membresRechercherAccès aux bonus du forumConnexionFAQ

Partagez | 
 
 
 Les étapes du Dakar 2009
Voir le sujet précédent Voir le sujet suivant Aller en bas 
Aller à la page : Précédent  1, 2, 3, 4, 5, 6, 7, 8
AuteurMessage
willy80
Globe-Surfeur "Or" (niv 6)
Globe-Surfeur
willy80

Masculin Cancer Nombre de messages 9069
Age 73
Localisation valines _80210
Humeur curieux de tout
Emploi/Loisirs retraité

Les étapes du Dakar 2009 - Page 8 Empty
MessageSujet: Re: Les étapes du Dakar 2009   Les étapes du Dakar 2009 - Page 8 EmptySam 17 Jan 2009 - 17:09

les étapes du Dakar 2009

Etape 14 : Classement Auto

Position Nom Prénom Temps Retard Marque Modèle Dossard Pays
1 DE VILLIERS Giniel 01:35:43 VOLKSWAGEN TOUAREG 305 ZAF
2 NOVITSKIY Leonid 01:35:45 00:00:02 BMW X3 CC 316 RUS
3 HOLOWCZYC Krzysztof 01:36:00 00:00:17 NISSAN NAVARA 317 POL
4 ROMA Joan (nani) 01:36:21 00:00:38 MITSUBISHI RACING LANCER 304 ESP
5 CHICHERIT Guerlain 01:36:33 00:00:50 BMW X3 CC 306 FRA
6 MILLER Mark 01:42:22 00:06:39 VOLKSWAGEN TOUAREG 308 USA
7 KUIPERS Rene 01:44:45 00:09:02 BMW X3 CC 330 NLD
8 KAHLE Matthias 01:44:57 00:09:14 HONDA BUGGY FAST & SPEED 328 DEU
9 GARLAND Bruce 01:45:14 00:09:31 ISUZU D-MAX 1 362 AUS
10 TOLLEFSEN Ivar Erik 01:45:16 00:09:33 NISSAN NAVARA 327 NOR
11 MAGNALDI Thierry 01:45:23 00:09:40 BUGGY SMG PORSCHE 320 FRA
12 ZAPLETAL Miroslav 01:46:25 00:10:42 MITSUBISHI L 200 340 CZE
13 DEPPING Dieter 01:50:17 00:14:34 VOLKSWAGEN TOUAREG 307 DEU
14 AZIS Janis 01:50:23 00:14:40 OSC OSCAR 03 342 LVA
15 THOMASSE Pascal 01:51:00 00:15:17 BUGGY 326 FRA
16 LEYDS Chris 01:51:28 00:15:45 MC RAE ENDURO 351 NLD
17 PORNSIRICHERD Mana 01:51:29 00:15:46 MITSUBISHI PAJERO 368 THA
18 GIBON Nicolas 01:53:04 00:17:21 TOYOTA VDJ 200 378 FRA
19 ERRANDONEA Bernard 01:53:59 00:18:16 BUGGY SMG V8 321 AND
20 SOLOVIEV Yaroslav 01:54:09 00:18:26 BUGGY SMG V8 356 RUS
21 PALIK Laszlo 01:54:12 00:18:29 NISSAN NAVARA 331 HUN
22 MARZOTTO Matteo 01:54:18 00:18:35 NISSAN PATROL Y61 421 ITA
23 GORDON Robby 01:54:45 00:19:02 HUMMER H3 309 USA
24 MITSUHASHI Jun 01:55:12 00:19:29 TOYOTA VDJ 200 375 JPN
25 WALLENTHEIM Pelle 01:59:44 00:24:01 ISUZU D-MAX 2 447 SWE
26 VOLIKOV Viktor 01:59:58 00:24:15 TOYOTA LAND CRUISER 120 474 RUS
27 KUZNETSOV Ilya 02:00:01 00:24:18 MITSUBISHI PAJERO L200 369 RUS
28 ESTEVE PUJOL Isidre 02:00:04 00:24:21 SSANGYONG KYRON 2.7DCI 392 ESP
29 SIREYJOL Patrick 02:00:07 00:24:24 BOWLER WILDCAT 363 FRA
30 BESSON Jean - pascal 02:00:13 00:24:30 MERCEDES 381 FRA
31 VAN DEIJNE Tonnie 02:00:15 00:24:32 MITSUBISHI L200 323 NLD
32 PELICHET Jérôme 02:00:21 00:24:38 BOWLER WILDCAT 200 373 FRA
33 LEAL DOS SANTOS Ricardo 02:00:21 00:24:38 BMW X5 CC 347 PRT
34 PATISSIER Isabelle 02:00:30 00:24:47 BUGGY 338 AND
35 DE GROOT Michel 02:00:45 00:25:02 MC RAE ENDURO 337 NLD
36 DUBUY Gérard 02:01:05 00:25:22 NISSAN PATROL 422 FRA
37 VIGOUROUX Eric 02:01:54 00:26:11 HUMMER H3 324 FRA
38 FOJ Xavier 02:02:31 00:26:48 TOYOTA LAND CRUISER 379 ESP
39 RIVIERE Jérôme 02:03:11 00:27:28 NISSAN PATROL 424 FRA
40 FIDEL MEDERO Juan miguel 02:03:19 00:27:36 TOYOTA PICK UP 491 ESP
41 PICHINI Paulo henrique 02:04:53 00:29:10 MITSUBISHI PAJERO 444 BRA
42 TEN HARKEL Bob 02:05:36 00:29:53 BOWLER NEMESIS 384 NLD
43 SALAZAR Eliseo 02:05:45 00:30:02 MC RAE ENDURO 332 CHL
44 CORONEL Tim 02:05:47 00:30:04 BOWLER NEMESIS 354 NLD
45 LISZI Laszlo 02:06:25 00:30:42 MITSUBISHI PAJERO 372 HUN
46 JANECEK Jiri 02:06:59 00:31:16 TOYOTA LAND CRUISER 120 481 CZE
47 SZALAY Balazs 02:07:04 00:31:21 OPEL ANTARA RR 329 HUN
48 TIJSTERMAN Cornelis 02:07:05 00:31:22 DESERT WARRIOR 451 NLD
49 SAUKANS Maris 02:07:13 00:31:30 OSC OSCAR 03 343 LVA
50 MIGRAINE- BOURGNON Florence 02:12:20 00:36:37 TOYOTA LAND CRUISER PRAD 443 FRA
51 CAMPOS PEREIRA Martine 02:12:22 00:36:39 TOYOTA LAND CRUISER 120 402 PRT
52 GOSSELIN Philippe 02:12:34 00:36:51 NISSAN PATROL 389 FRA
53 PETRAITIS Aurelijus 02:13:00 00:37:17 OSC 355 LTU
54 HARDY Jérôme 02:13:22 00:37:39 MITSUBISHI PAJERO 453 FRA
55 BERKUT Alexey 02:13:28 00:37:45 MITSUBISHI PAJERO EVOLUTION 348 RUS
56 VAN DER BEEK Wouter 02:13:28 00:37:45 KIA SORENTO 493 NLD
57 BERNAT-SALLES Philippe 02:13:32 00:37:49 BOWLER WILDCAT 200 412 FRA
58 FAVRE Frédéric 02:13:41 00:37:58 TOYOTA HJZ 105 486 FRA
59 BARBIER Christian 02:13:41 00:37:58 MITSUBISHI PAJERO 386 FRA
60 CHAVIGNY Frederic 02:13:48 00:38:05 NISSAN PATHFINDER 409 FRA
61 MACHADO Adelio 02:13:54 00:38:11 TOYOTA LAND CRUISER 120 382 PRT
62 DUBRISAY Arnaud 02:14:08 00:38:25 BOWLER WILDCAT 200 410 FRA
63 CREPET Paul 02:14:10 00:38:27 NISSAN PATROL GR 429 FRA
64 PITA Francisco 02:14:20 00:38:37 TOYOTA LAND CRUISER PRADO 399 PRT
65 NINGJUN Lu 02:14:29 00:38:46 BUGGY SMG V8 357 CHN
66 SALINERO Jose manuel 02:14:33 00:38:50 NISSAN TERRANO PROT 374 ESP
67 BARANENKO Alexander 02:14:36 00:38:53 TOYOTA LAND CRUISER PRADO 463 RUS
68 VAN EIKEREN Mike 02:14:44 00:39:01 TOYOTA LAND CRUISER 405 NLD
69 SCHOTT Stephan 02:16:14 00:40:31 MITSUBISHI PAJERO 365 DEU
70 COX Alfie 02:16:20 00:40:37 BUGGY SMG PORSCHE 335 ZAF
71 VOORHORST Iginio 02:18:41 00:42:58 RALLY RAID UK DESERT WARRIOR 437 NLD
72 RODRIGUEZ SIMON Joan 02:19:10 00:43:27 NISSAN NAVARA PICK UP 445 ESP
73 BROUWER Arjan 02:19:32 00:43:49 HONDA BUGGY 359 NLD
74 NEES Werner 02:19:41 00:43:58 TOYOTA LAND CRUISER 439 BEL
75 LARAIGNOU Jérôme 02:19:42 00:43:59 MITSUBISHI PAJERO 413 FRA
76 GIRARD Christophe 02:20:42 00:44:59 TOYOTA 4X4VENTURE 484 FRA
77 CHABOT Ronan 02:20:52 00:45:09 TOYOTA LAND CRUISER 377 FRA
Revenir en haut Aller en bas
willy80
Globe-Surfeur "Or" (niv 6)
Globe-Surfeur
willy80

Masculin Cancer Nombre de messages 9069
Age 73
Localisation valines _80210
Humeur curieux de tout
Emploi/Loisirs retraité

Les étapes du Dakar 2009 - Page 8 Empty
MessageSujet: Re: Les étapes du Dakar 2009   Les étapes du Dakar 2009 - Page 8 EmptySam 17 Jan 2009 - 19:17

les étapes du Dakar 2009

Etape 14 : Classement Quad

Position Nom Prénom Temps Retard Marque Modèle Dossard Pays
1 PENA Jose maria 02:14:23 YAMAHA RAPTOR 700 252 ESP
2 MACHACEK Josef 02:14:31 00:00:08 YAMAHA RAPTOR 250 CZE
3 DELTRIEU Hubert 02:16:13 00:01:50 POLARIS OUTLAW 525 255 FRA
4 AVENDANO Carlos 02:16:40 00:02:17 SUZUKI LTR 450 251 ESP
5 BRAZINA Oldrich 02:21:06 00:06:43 YAMAHA 660 272 CZE
6 POTTIER Olivier 02:25:46 00:11:23 CAN - AM DS 650 276 FRA
7 PATRONELLI Marcos 02:28:11 00:13:48 CAN - AM 800 273 ARG
8 CARLINI Eric 02:30:11 00:15:48 POLARIS OUTLAW 525 267 FRA
9 KRAFT Elisabeth 02:36:36 00:22:13 POLARIS OUTLAW 525 268 FRA
10 SONIK Rafal 02:36:50 00:22:27 YAMAHA RAPTOR 262 POL

Etape 14 : Classement Camion

Position Nom Prénom Temps Retard Marque Modèle Dossard Pays
1 KABIROV Firdaus 01:49:56 KAMAZ 43 26 506 RUS
2 CHAGIN Vladimir 01:50:35 00:00:39 KAMAZ 4326 501 RUS
3 ECHTER Franz 01:51:23 00:01:27 MAN TGS 18.480 507 DEU
4 DE ROOY Gerard 01:52:15 00:02:19 GINAF X2223 505 NLD
5 VAN VLIET Marcel 02:02:13 00:12:17 GINAF X2222 509 NLD
6 MARDEEV Ilgizar 02:04:27 00:14:31 KAMAZ 4326 508 RUS
7 VAN DEN BRINK Martin 02:04:33 00:14:37 GINAF X2222 527 NLD
8 SZALLER Zoltan 02:04:41 00:14:45 MAN M2000 18.280 534 HUN
9 VILA ROCA Pep 02:08:50 00:18:54 MERCEDES 1844-AK 510 ESP
10 DUISTERS Hugo 02:08:55 00:18:59 GINAF X2223 518 BEL
11 JUVANTENY Jordi 02:09:10 00:19:14 MAN TGS 26.480 514 ESP
12 ELFRINK Johan 02:09:29 00:19:33 MERCEDES AXOR 537 NLD
13 BEHRINGER Mathias 02:09:40 00:19:44 MAN TGS 18.480 558 DEU
14 VAN DELM Peter 02:11:26 00:21:30 MAN TGS 18.480 561 BEL
15 REIF Peter 02:14:04 00:24:08 MAN TGS 18.480 536 AUT
16 BORRERO GOMEZ Manuel 02:14:13 00:24:17 MAN TGA 567 ESP
17 VERBIST Francois 02:18:40 00:28:44 MAN TGS 18.480 544 BEL
18 SUGAWARA Teruhito 02:19:00 00:29:04 HINO RANGER 513 JPN
19 VAN EERD Frits 02:19:06 00:29:10 DAF 75 533 NLD
20 DE LEEUW Tom 02:19:30 00:29:34 MAN TGS 18.480 556 BEL
21 BUFI VIURE Juan 02:23:00 00:33:04 MERCEDES 1844 AK 542 AND
22 BEZEMER Cornelis 02:24:22 00:34:26 MAN F2000 19.460 528 BEL
23 GIMBRE Raphael 02:24:55 00:34:59 MERCEDES 2635AK8M 554 FRA
24 TRUCCO Luisa Elena 02:24:58 00:35:02 IVECO EUROCARGO 531 ITA
25 MOREL Antoine 02:25:30 00:35:34 MAN M2000 18.280 550 FRA
26 BAEUERLE Klaus 02:27:06 00:37:10 MAN TGS 18.480 545 DEU
27 DE MIGUEL Javier 02:28:50 00:38:54 MAN TGS 18.480 580 ESP
28 SUGAWARA Yoshimasa 02:31:36 00:41:40 HINO RANGER 511 JPN
29 LACOURT Serge 02:36:43 00:46:47 MERCEDES 2635AK8M 543 FRA
30 DE BAAR Pascal 02:39:25 00:49:29 GINAF 4X4 579 NLD
31 BLOM Pierre 02:40:10 00:50:14 GINAF X2223 551 NLD
32 RICKLER Renato 02:42:33 00:52:37 IVECO 140E24NW 565 ITA
33 CALZI Stefano 02:42:51 00:52:55 MAN M2000 18.280 4X4 563 ITA
34 VAN GINKEL Edwin 02:42:51 00:52:55 GINAF X2222 535 NLD
35 BROUWERS Jack 02:43:07 00:53:11 GINAF X2222 577 NLD
36 CORRAL Laurentino 02:43:17 00:53:21 MERCEDES 1735 AK 583 ESP
37 HOEBEKE Roland 02:43:40 00:53:44 RENAULT KERAX 568 BEL
38 DE AZEVEDO André 03:01:22 01:11:26 TATRA T 815 504 BRA
Revenir en haut Aller en bas
willy80
Globe-Surfeur "Or" (niv 6)
Globe-Surfeur
willy80

Masculin Cancer Nombre de messages 9069
Age 73
Localisation valines _80210
Humeur curieux de tout
Emploi/Loisirs retraité

Les étapes du Dakar 2009 - Page 8 Empty
MessageSujet: Re: Les étapes du Dakar 2009   Les étapes du Dakar 2009 - Page 8 EmptySam 17 Jan 2009 - 19:21

les étapes du Dakar 2009

http://dakar.france2.fr/index-fr.php?page=classement-detail&etape=14&vehicule=M&type=CG

Etape 14 : Classement général Moto

Position Nom Prénom Temps Retard Marque Modèle Dossard Pays
1 COMA Marc 52:14:33 KTM 690 RALLYE 002 ESP
2 DESPRES Cyril 53:40:11 01:25:38 KTM 690 RALLYE 001 FRA
3 FRETIGNE David 53:53:29 01:38:56 YAMAHA WRF 450 012 FRA
4 CASTEU David 54:32:27 02:17:54 KTM 690 RALLYE 003 FRA
5 RODRIGUES Helder 54:36:44 02:22:11 KTM 690 RALLY 005 PRT
6 ULLEVALSETER Pal anders 54:39:35 02:25:02 KTM 690 RALLYE 004 NOR
7 VILADOMS Jordi 54:43:02 02:28:29 KTM 690 RALLYE 009 ESP
8 VERHOEVEN Frans 55:05:12 02:50:39 KTM 690 RALLYE 015 NLD
9 KNUIMAN Henk 55:37:14 03:22:41 KTM 690 011 NLD
10 GONCALVES Paulo 56:27:15 04:12:42 HONDA CRF 450 X 023 PRT
11 PRZYGONSKI Jakub 56:53:04 04:38:31 KTM 690 082 POL
12 RODRIGUES FILHO Jose helio 57:09:30 04:54:57 HONDA 450 CRF X 025 BRA
13 STANOVNIK Miran 58:52:20 06:37:47 KTM LC 4 RALLY 017 SVN
14 VINTERS Einars 58:59:45 06:45:12 KTM 690 RALLYE REPLICA 018 LVA
15 VISSER Teus 59:31:10 07:16:37 KTM 690 RALLY REPLICA 107 NLD
16 COTTET Philippe 61:42:21 09:27:48 KTM 690 RALLY 029 CHE
17 VAN DEN GOORBERGH Jurgen 62:08:19 09:53:46 HONDA CRF 450 X 057 NLD
18 MACEK Martin 62:35:02 10:20:29 YAMAHA WR 450 F 019 CZE
19 FARRES GUELL Gerard 63:00:03 10:45:30 KTM 690 RALLYE 024 ESP
20 CZACHOR Jacek 63:15:21 11:00:48 KTM 690 010 POL
21 WILLEMSEN Daniel 63:38:27 11:23:54 YAMAHA WR 450F 047 NLD
22 JARMUZ Krzysztof 63:39:38 11:25:05 HONDA CRF 450 075 POL
23 BETHYS Thierry 63:43:39 11:29:06 HONDA 450 CRF X 008 FRA
24 GUASCH Marc 63:52:52 11:38:19 KTM 690 RALLYE 155 ESP
25 PRONK Marcel 64:19:24 12:04:51 HONDA CRF 450 X 211 NLD
26 EXTANCE Michael 65:29:02 13:14:29 HONDA CRF 450 041 GBR
27 BARROT David 65:29:39 13:15:06 YAMAHA WR 450 F 068 FRA
28 GADIOUX Francis 65:33:16 13:18:43 KTM 450 WRF HFP 086 FRA
29 CROQUELOIS Eric 65:37:34 13:23:01 YAMAHA 450 WRF 028 FRA
30 BIANCHI PRATA Pedro 65:42:29 13:27:56 BMW 450 092 PRT
31 RODOLPHO Mattheis 65:54:06 13:39:33 YAMAHA WR 450 F 039 BRA
32 DUCLOS Alain 65:56:11 13:41:38 KTM 690 RALLYE 014 FRA
33 VAN PELT Rob 66:06:00 13:51:27 HONDA 450 CRF 079 NLD
34 PUERTAS HERRERA Miguel 66:23:38 14:09:05 KTM 525 EXC 051 ESP
35 VILLARRUBIA GARCIA Julian 66:39:55 14:25:22 GAS-GAS 450 EC 085 ESP
36 SCHWARZ David 67:05:24 14:50:51 KTM 690 RALLY 040 AUS
37 MEILLAT Christophe 67:06:42 14:52:09 KAWASAKI 450 KLX R 087 FRA
38 WATT Stanley 67:19:30 15:04:57 KTM 690 RALLY REPLICA 110 GBR
39 PROHENS Jaime 68:01:16 15:46:43 KTM 525 070 CHL
40 VAN DEN BROEK Alex 68:07:11 15:52:38 HONDA CRF 450 X 111 NLD
41 ZEGERS CORREA Juan Pablo 68:17:33 16:03:00 HONDA CRF 450 X 200 CHL
42 PEDRERO GARCIA Juan 68:21:37 16:07:04 KTM 525 EXC 197 ESP
43 JAKES Ivan 69:10:28 16:55:55 KTM 690 RALLY REPLICA 165 SVK
44 FRONEK Jan 69:32:37 17:18:04 KTM 690 193 CZE
45 CARILLON Patrice 69:56:40 17:42:07 KTM 690 RALLY REPLICA 032 FRA
46 DUBOIS Norbert 70:18:45 18:04:12 KTM 690 RALLY REPLICA 061 FRA
47 LORMAND Etienne 70:50:57 18:36:24 YAMAHA 450 WRF 140 FRA
48 LIEFHEBBER Hans-jos 71:02:50 18:48:17 YAMAHA WR 450 F 167 NLD
49 MESSIAEN Jean-christophe 71:23:16 19:08:43 KTM 525 EXC 189 BEL
50 SNIJDERS Marcel 71:26:37 19:12:04 HONDA 450 CRF X 072 NLD
51 SERRADORI Mathieu 72:19:06 20:04:33 BETA 128 FRA
52 WALDSCHMIDT Ingo 72:40:01 20:25:28 KTM 690 RALLY 203 NAM
53 POL Gesina maria 73:01:16 20:46:43 HONDA CRF 450 048 NLD
54 BOUNDS Craig 73:06:36 20:52:03 KTM 525 MXC 235 GBR
55 DASSE Philippe 73:35:37 21:21:04 KTM 690 RALLY REPLICA 063 FRA
56 VILLY Frédéric 73:42:26 21:27:53 YAMAHA 450 WR 218 FRA
57 TROLARD Jean-François 73:57:33 21:43:00 YAMAHA WR 450 045 FRA
58 JOBARD Willy 74:07:09 21:52:36 KTM 450 EXC 027 FRA
59 JUNCO ANDRES Aurelio 75:02:28 22:47:55 SHERCO 450 101 ARG
60 ARNOULT Patrick 75:06:54 22:52:21 KTM 690 RALLYE 097 FRA
61 DESI Janos 75:36:11 23:21:38 KTM 690 FACTORY 204 HUN
62 DUICU Romeo George 76:16:46 24:02:13 KTM 690 RALLYE 067 ROU
63 LIST Gerard 76:31:40 24:17:07 YAMAHA 250 WR F 168 NLD
64 DE BOIS Thomas 76:41:07 24:26:34 KTM 530 169 NLD
65 PABISKA David 76:48:32 24:33:59 KTM 690 RALLY REPLICA 042 CZE
66 ROND Gerard 77:46:40 25:32:07 KTM 530 EXC-R 156 NLD
67 FONJALLAZ Jean-Luc 78:03:38 25:49:05 KTM 690 RALLYE 187 CHE
68 PAVEY Simon 78:20:23 26:05:50 BMW G 650 X CHALLENGE 126 AUS
69 KOOLEN Kees 78:54:57 26:40:24 HONDA CRF 450 125 NLD
70 COET Sebastien 79:06:59 26:52:26 KTM 525 EXCA 077 FRA
71 MAION Mauro 79:08:54 26:54:21 BETA 127 FRA
72 MITI Ruben marcello 79:09:45 26:55:12 YAMAHA WRF 450 103 ARG
73 SCHIANO Eric 79:49:21 27:34:48 SHERCO 250 178 FRA
74 PAGNON Luc 80:17:54 28:03:21 KTM 660 RALLY 113 FRA
75 SANCHEZ TAPIA José 81:13:20 28:58:47 KTM 525 EXC 199 ESP
76 SEEL Annie 81:14:58 29:00:25 KTM EXC 525 093 SWE
77 VAN DER LAAN Johan 81:19:46 29:05:13 HUSQVARNA TE 450 138 NLD
78 VAN OLST Robert 81:40:45 29:26:12 KTM 525 EXC 123 NLD
79 GOMEZ PALLAS Francisco José 82:24:43 30:10:10 HONDA CRF 450 134 ESP
80 SCHUTTEL Dirk 82:56:47 30:42:14 YAMAHA WR 450 F 217 NLD
81 VAN BERGEIJK Henno 85:49:51 33:35:18 KTM 690 RALLY 147 NLD
82 KRONSEDER Norman 86:45:31 34:30:58 KTM RALLY 690 REPLICA 094 DEU
83 DOMET Bertrand 87:08:25 34:53:52 YAMAHA 450 WRF 161 FRA
84 DOMET Philippe 87:19:01 35:04:28 YAMAHA WRF 450 162 FRA
85 DOMET Arnaud 87:40:49 35:26:16 YAMAHA 450 WRF 160 FRA
86 PALANTE Eric 87:50:12 35:35:39 HONDA 450 CRFX 122 BEL
87 ENNIS Gary 88:00:07 35:45:34 KTM 660 RALLYE 206 IRL
88 MEMI Andrès 88:17:40 36:03:07 BMW J 450 X 196 ARG
89 SAGHMEISTER Gabor 88:19:54 36:05:21 KTM 690 RALLY 158 SRB
90 BUCHAN Ewan 88:52:38 36:38:05 KTM 525 EXC 222 GBR
91 PENNARUN Philippe 89:51:42 37:37:09 YAMAHA 450 WRE 154 FRA
92 ROOS Ronny 90:20:58 38:06:25 KTM 690 RALLYE 224 NLD
93 BONNET Pierrick 90:50:35 38:36:02 KTM 660 052 FRA
94 SHEPHERD Michael 92:33:19 40:18:46 KTM 525 EXC 234 NZL
95 ORFANOS Vasileios 93:44:55 41:30:22 HONDA XR 400 SPR 106 GRC
96 ESTRADE David 93:46:18 41:31:45 SHERCO 450 069 FRA
97 BRAAT John 94:50:52 42:36:19 KTM 690 RALLYE 227 NLD
98 RAHM Henrik 96:05:28 43:50:55 KTM 660 RALLYE FACTORY 216 SWE
99 SLAPSYS Mindaugas 98:46:42 46:32:09 KTM 690 RALLY 230 LTU
100 DEPOORTER Philippe 98:52:35 46:38:02 KTM 690 RALLY 219 BEL
101 ANO Julio 99:59:43 47:45:10 YAMAHA 450 WRF 118 FRA
102 DE ROO Herwin 103:13:03 50:58:30 YAMAHA WR450F 135 NLD
103 CHERPIN Pierre 104:17:41 52:03:08 KTM 690 RALLY REPLICA 099 FRA
104 LECOMTE Antoine 104:18:10 52:03:37 YAMAHA 450 WRF 120 FRA
105 VULLIET Etienne 104:59:47 52:45:14 YAMAHA 450 WRF 074 FRA
106 DE GROOT Richard 106:12:06 53:57:33 YAMAHA WR 400 119 NLD
107 DIGUIET Gilles 108:34:54 56:20:21 KTM RALLY 190 FRA
108 VERRIEST Mark 111:39:37 59:25:04 SUZUKI DR-Z 400 146 BEL
109 ALAN Eduardo 113:11:08 60:56:35 KTM 530 EXC 137 ARG
110 GHITTI Federico 117:31:00 65:16:27 KTM 690 RALLY FACTORY 152 ITA
111 GUYOMARC?H Yannick 122:36:43 70:22:10 KTM 690 RALLY 098 FRA
112 MERKIT Kemal 160:59:12 108:44:39 KTM 450 EXC-R 055 TUR
113 KNECHT Robert 205:46:02 153:31:29 KTM 525 EXC 202 CHE

Etape 14 : Classement général Auto

Position Nom Prénom Temps Retard Marque Modèle Dossard Pays
1 DE VILLIERS Giniel 48:10:57 VOLKSWAGEN TOUAREG 305 ZAF
2 MILLER Mark 48:19:56 00:08:59 VOLKSWAGEN TOUAREG 308 USA
3 GORDON Robby 49:57:12 01:46:15 HUMMER H3 309 USA
4 TOLLEFSEN Ivar Erik 54:15:31 06:04:34 NISSAN NAVARA 327 NOR
5 HOLOWCZYC Krzysztof 54:48:46 06:37:49 NISSAN NAVARA 317 POL
6 DEPPING Dieter 56:54:26 08:43:29 VOLKSWAGEN TOUAREG 307 DEU
7 ZAPLETAL Miroslav 59:14:05 11:03:08 MITSUBISHI L 200 340 CZE
8 NOVITSKIY Leonid 61:26:10 13:15:13 BMW X3 CC 316 RUS
9 CHICHERIT Guerlain 63:00:46 14:49:49 BMW X3 CC 306 FRA
10 ROMA Joan (nani) 65:38:43 17:27:46 MITSUBISHI RACING LANCER 304 ESP
11 GARLAND Bruce 66:43:03 18:32:06 ISUZU D-MAX 1 362 AUS
12 SIREYJOL Patrick 66:49:48 18:38:51 BOWLER WILDCAT 363 FRA
13 VIGOUROUX Eric 66:56:34 18:45:37 HUMMER H3 324 FRA
14 GIBON Nicolas 69:09:31 20:58:34 TOYOTA VDJ 200 378 FRA
15 KAHLE Matthias 69:49:52 21:38:55 HONDA BUGGY FAST & SPEED 328 DEU
16 FOJ Xavier 70:23:40 22:12:43 TOYOTA LAND CRUISER 379 ESP
17 PATISSIER Isabelle 72:56:05 24:45:08 BUGGY 338 AND
18 KUIPERS Rene 73:00:16 24:49:19 BMW X3 CC 330 NLD
19 CHABOT Ronan 73:09:45 24:58:48 TOYOTA LAND CRUISER 377 FRA
20 MAGNALDI Thierry 75:25:24 27:14:27 BUGGY SMG PORSCHE 320 FRA
21 PALIK Laszlo 75:33:16 27:22:19 NISSAN NAVARA 331 HUN
22 SZALAY Balazs 77:32:24 29:21:27 OPEL ANTARA RR 329 HUN
23 DE AZEVEDO Jean 78:19:45 30:08:48 MITSUBISHI PAJERO 319 BRA
24 AZIS Janis 78:26:35 30:15:38 OSC OSCAR 03 342 LVA
25 MARZOTTO Matteo 82:18:29 34:07:32 NISSAN PATROL Y61 421 ITA
26 PETRAITIS Aurelijus 82:55:42 34:44:45 OSC 355 LTU
27 VAN DEIJNE Tonnie 83:27:46 35:16:49 MITSUBISHI L200 323 NLD
28 THOMASSE Pascal 83:40:19 35:29:22 BUGGY 326 FRA
29 ERRANDONEA Bernard 84:41:22 36:30:25 BUGGY SMG V8 321 AND
30 PELICHET Jérôme 84:42:26 36:31:29 BOWLER WILDCAT 200 373 FRA
31 MITSUHASHI Jun 84:58:36 36:47:39 TOYOTA VDJ 200 375 JPN
32 FAVRE Frédéric 87:20:54 39:09:57 TOYOTA HJZ 105 486 FRA
33 DUBUY Gérard 87:26:14 39:15:17 NISSAN PATROL 422 FRA
34 HARDY Jérôme 87:33:15 39:22:18 MITSUBISHI PAJERO 453 FRA
35 FIDEL MEDERO Juan miguel 89:49:25 41:38:28 TOYOTA PICK UP 491 ESP
36 GARROFE Jose maria 92:08:36 43:57:39 BOWLER WILDCAT 200 446 ESP
37 KUZNETSOV Ilya 94:17:10 46:06:13 MITSUBISHI PAJERO L200 369 RUS
38 VAN EIKEREN Mike 94:39:05 46:28:08 TOYOTA LAND CRUISER 405 NLD
39 DE GROOT Michel 96:18:46 48:07:49 MC RAE ENDURO 337 NLD
40 LEYDS Chris 98:32:31 50:21:34 MC RAE ENDURO 351 NLD
41 MACHADO Adelio 99:04:46 50:53:49 TOYOTA LAND CRUISER 120 382 PRT
42 VOLIKOV Viktor 103:21:22 55:10:25 TOYOTA LAND CRUISER 120 474 RUS
43 SOLOVIEV Yaroslav 103:40:25 55:29:28 BUGGY SMG V8 356 RUS
44 WALLENTHEIM Pelle 104:05:37 55:54:40 ISUZU D-MAX 2 447 SWE
45 VAN DER BEEK Wouter 106:23:14 58:12:17 KIA SORENTO 493 NLD
46 DUBRISAY Arnaud 106:42:31 58:31:34 BOWLER WILDCAT 200 410 FRA
47 BOUTRON Philippe 112:17:24 64:06:27 BOWLER WILDCAT 391 FRA
48 BARANENKO Alexander 114:08:32 65:57:35 TOYOTA LAND CRUISER PRADO 463 RUS
49 BARBIER Christian 114:51:50 66:40:53 MITSUBISHI PAJERO 386 FRA
50 CHAVIGNY Frederic 117:01:37 68:50:40 NISSAN PATHFINDER 409 FRA
51 JANECEK Jiri 118:57:11 70:46:14 TOYOTA LAND CRUISER 120 481 CZE
52 LISZI Laszlo 119:38:49 71:27:52 MITSUBISHI PAJERO 372 HUN
53 TEN HARKEL Bob 119:38:59 71:28:02 BOWLER NEMESIS 384 NLD
54 CREPET Paul 120:04:10 71:53:13 NISSAN PATROL GR 429 FRA
55 GAROSCI Riccardo 124:28:11 76:17:14 MITSUBISHI PAJERO 334 ITA
56 VOORHORST Iginio 124:34:45 76:23:48 RALLY RAID UK DESERT WARRIOR 437 NLD
57 BROUWER Arjan 125:05:09 76:54:12 HONDA BUGGY 359 NLD
58 DIERS Hervé 125:11:43 77:00:46 TOYOTA LAND CRUISER 400 FRA
59 RAUD Philippe 125:15:14 77:04:17 TOYOTA HZJ 78 433 FRA
60 RODRIGUEZ SIMON Joan 128:15:54 80:04:57 NISSAN NAVARA PICK UP 445 ESP
61 ROUND Paul 133:18:43 85:07:46 RALLY RAID UK DESERT WARRIOR 441 SVK
62 GIRARD Christophe 139:55:32 91:44:35 TOYOTA 4X4VENTURE 484 FRA
63 PESCHIERA Gabriel 141:57:30 93:46:33 TOYOTA FJ CRUISER LTD 4X4 478 ITA
64 NINGJUN Lu 143:03:13 94:52:16 BUGGY SMG V8 357 CHN
65 PICHINI Paulo henrique 143:27:20 95:16:23 MITSUBISHI PAJERO 444 BRA
66 INOCENCIO Nuno pedro 143:55:42 95:44:45 MITSUBISHI PAJERO 367 PRT
67 GOSSELIN Philippe 146:23:33 98:12:36 NISSAN PATROL 389 FRA
68 NEES Werner 154:42:59 106:32:02 TOYOTA LAND CRUISER 439 BEL
69 ZIEGLER Michael 165:46:26 117:35:29 TOYOTA LAND CRUISER 120 456 USA
70 CORONEL Tim 295:18:26 247:07:29 BOWLER NEMESIS 354 NLD
71 TIJSTERMAN Cornelis 295:46:39 247:35:42 DESERT WARRIOR 451 NLD
72 BERNAT-SALLES Philippe 302:56:32 254:45:35 BOWLER WILDCAT 200 412 FRA
73 PORNSIRICHERD Mana 305:34:48 257:23:51 MITSUBISHI PAJERO 368 THA
74 COX Alfie 306:45:12 258:34:15 BUGGY SMG PORSCHE 335 ZAF
75 LEAL DOS SANTOS Ricardo 307:15:02 259:04:05 BMW X5 CC 347 PRT
76 SCHOTT Stephan 322:35:08 274:24:11 MITSUBISHI PAJERO 365 DEU
77 PITA Francisco 326:50:41 278:39:44 TOYOTA LAND CRUISER PRADO 399 PRT
78 BERKUT Alexey 327:08:18 278:57:21 MITSUBISHI PAJERO EVOLUTION 348 RUS
79 CAMPOS PEREIRA Martine 327:19:42 279:08:45 TOYOTA LAND CRUISER 120 402 PRT
80 BESSON Jean - pascal 331:42:53 283:31:56 MERCEDES 381 FRA
81 ESTEVE PUJOL Isidre 332:26:36 284:15:39 SSANGYONG KYRON 2.7DCI 392 ESP
82 MATTIJS Joris 336:55:58 288:45:01 RALLY RAID UK DESERT WARRIOR 435 BEL
83 SAUKANS Maris 337:11:54 289:00:57 OSC OSCAR 03 343 LVA
84 MIGRAINE- BOURGNON Florence 339:37:54 291:26:57 TOYOTA LAND CRUISER PRAD 443 FRA
85 LARAIGNOU Jérôme 341:42:21 293:31:24 MITSUBISHI PAJERO 413 FRA
86 RIVIERE Jérôme 344:58:34 296:47:37 NISSAN PATROL 424 FRA
87 SALAZAR Eliseo 350:09:20 301:58:23 MC RAE ENDURO 332 CHL
88 EGUIGUREN Luis 355:11:51 307:00:54 TOYOTA FJ CRUISER 465 CHL
89 SALINERO Jose manuel 375:39:41 327:28:44 NISSAN TERRANO PROT 374 ESP
Revenir en haut Aller en bas
willy80
Globe-Surfeur "Or" (niv 6)
Globe-Surfeur
willy80

Masculin Cancer Nombre de messages 9069
Age 73
Localisation valines _80210
Humeur curieux de tout
Emploi/Loisirs retraité

Les étapes du Dakar 2009 - Page 8 Empty
MessageSujet: Re: Les étapes du Dakar 2009   Les étapes du Dakar 2009 - Page 8 EmptySam 17 Jan 2009 - 19:23

les étapes du Dakar 2009

Etape 14 : Classement général Quad

Position Nom Prénom Temps Retard Marque Modèle Dossard Pays
1 MACHACEK Josef 68:22:06 YAMAHA RAPTOR 250 CZE
2 PATRONELLI Marcos 70:56:06 02:34:00 CAN - AM 800 273 ARG
3 SONIK Rafal 76:04:40 07:42:34 YAMAHA RAPTOR 262 POL
4 DELTRIEU Hubert 79:35:37 11:13:31 POLARIS OUTLAW 525 255 FRA
5 BRAZINA Oldrich 84:21:57 15:59:51 YAMAHA 660 272 CZE
6 AVENDANO Carlos 85:06:21 16:44:15 SUZUKI LTR 450 251 ESP
7 CARLINI Eric 93:32:51 25:10:45 POLARIS OUTLAW 525 267 FRA
8 KRAFT Elisabeth 94:34:45 26:12:39 POLARIS OUTLAW 525 268 FRA
9 POTTIER Olivier 108:42:44 40:20:38 CAN - AM DS 650 276 FRA
10 PENA Jose maria 115:08:11 46:46:05 YAMAHA RAPTOR 700 252 ESP
11 VAN GASTEL Martijn 116:44:28 48:22:22 YAMAHA RAPTOR 261 NLD
12 DUJARDYN Kurt 122:57:08 54:35:02 YAMAHA RAPTOR 700 278 BEL
13 GONNISSEN Anton 122:57:56 54:35:50 YAMAHA RAPTOR 700 277 BEL

Etape 14 : Classement général Camion

Position Nom Prénom Temps Retard Marque Modèle Dossard Pays
1 KABIROV Firdaus 49:34:46 KAMAZ 43 26 506 RUS
2 CHAGIN Vladimir 49:38:25 00:03:39 KAMAZ 4326 501 RUS
3 DE ROOY Gerard 50:34:42 00:59:56 GINAF X2223 505 NLD
4 MARDEEV Ilgizar 56:21:16 06:46:30 KAMAZ 4326 508 RUS
5 ECHTER Franz 56:54:27 07:19:41 MAN TGS 18.480 507 DEU
6 DE AZEVEDO André 59:06:04 09:31:18 TATRA T 815 504 BRA
7 VILA ROCA Pep 65:41:26 16:06:40 MERCEDES 1844-AK 510 ESP
8 JUVANTENY Jordi 69:28:31 19:53:45 MAN TGS 26.480 514 ESP
9 SZALLER Zoltan 70:01:47 20:27:01 MAN M2000 18.280 534 HUN
10 VAN VLIET Marcel 71:07:56 21:33:10 GINAF X2222 509 NLD
11 VAN DEN BRINK Martin 71:18:22 21:43:36 GINAF X2222 527 NLD
12 DUISTERS Hugo 74:50:53 25:16:07 GINAF X2223 518 BEL
13 SUGAWARA Teruhito 76:58:08 27:23:22 HINO RANGER 513 JPN
14 BEHRINGER Mathias 77:17:19 27:42:33 MAN TGS 18.480 558 DEU
15 BORRERO GOMEZ Manuel 77:51:46 28:17:00 MAN TGA 567 ESP
16 TRUCCO Luisa Elena 82:09:11 32:34:25 IVECO EUROCARGO 531 ITA
17 BROUWERS Jack 94:12:39 44:37:53 GINAF X2222 577 NLD
18 VAN EERD Frits 96:32:46 46:58:00 DAF 75 533 NLD
19 CALZI Stefano 103:18:54 53:44:08 MAN M2000 18.280 4X4 563 ITA
20 RICKLER Renato 107:53:47 58:19:01 IVECO 140E24NW 565 ITA
21 VERBIST Francois 128:39:27 79:04:41 MAN TGS 18.480 544 BEL
22 VAN DELM Peter 138:09:15 88:34:29 MAN TGS 18.480 561 BEL
23 DE LEEUW Tom 147:13:18 97:38:32 MAN TGS 18.480 556 BEL
24 SUGAWARA Yoshimasa 180:52:03 131:17:17 HINO RANGER 511 JPN
25 REIF Peter 187:37:32 138:02:46 MAN TGS 18.480 536 AUT
26 LACOURT Serge 188:06:56 138:32:10 MERCEDES 2635AK8M 543 FRA
27 GIMBRE Raphael 189:43:53 140:09:07 MERCEDES 2635AK8M 554 FRA
28 BAEUERLE Klaus 194:40:40 145:05:54 MAN TGS 18.480 545 DEU
29 ELFRINK Johan 197:32:10 147:57:24 MERCEDES AXOR 537 NLD
30 BEZEMER Cornelis 199:16:58 149:42:12 MAN F2000 19.460 528 BEL
31 DE BAAR Pascal 210:58:11 161:23:25 GINAF 4X4 579 NLD
32 DE MIGUEL Javier 227:12:19 177:37:33 MAN TGS 18.480 580 ESP
33 VAN GINKEL Edwin 227:26:39 177:51:53 GINAF X2222 535 NLD
34 BLOM Pierre 230:34:07 180:59:21 GINAF X2223 551 NLD
35 MOREL Antoine 240:29:23 190:54:37 MAN M2000 18.280 550 FRA
36 BUFI VIURE Juan 262:00:51 212:26:05 MERCEDES 1844 AK 542 AND
37 HOEBEKE Roland 274:11:15 224:36:29 RENAULT KERAX 568 BEL
38 CORRAL Laurentino 275:39:23 226:04:37 MERCEDES 1735 AK 583 ESP
Revenir en haut Aller en bas
djn06
(VIP) Membre très important
(VIP) Membre très important
djn06

Masculin Lion Nombre de messages 9044
Age 56
Localisation Annemasse (74)
Humeur Zen
Emploi/Loisirs dessinateur

Les étapes du Dakar 2009 - Page 8 Empty
MessageSujet: Re: Les étapes du Dakar 2009   Les étapes du Dakar 2009 - Page 8 EmptySam 17 Jan 2009 - 23:07

Les étapes du Dakar 2009 - Page 8 Bonjour3

je suis tombé sur des photos sympas du Paris Dakar, et comme j'avais vu qu'il y avait un post sur ce rallye, je vous les mets ..
elle viennent d'un site russe: nasnet.ru (déconseillé aux âmes sensibles et prudes...)

Les étapes du Dakar 2009 - Page 8 Bon willy80 pour les passionnés du Dakar

Les étapes du Dakar 2009 - Page 8 Parisd10

Les étapes du Dakar 2009 - Page 8 Parisd11

Les étapes du Dakar 2009 - Page 8 Parisd12

Les étapes du Dakar 2009 - Page 8 Parisd13

Very Happy
Revenir en haut Aller en bas
willy80
Globe-Surfeur "Or" (niv 6)
Globe-Surfeur
willy80

Masculin Cancer Nombre de messages 9069
Age 73
Localisation valines _80210
Humeur curieux de tout
Emploi/Loisirs retraité

Les étapes du Dakar 2009 - Page 8 Empty
MessageSujet: Re: Les étapes du Dakar 2009   Les étapes du Dakar 2009 - Page 8 EmptySam 17 Jan 2009 - 23:18

elles sont magnifiques tes photos djn06 Les étapes du Dakar 2009 - Page 8 Bon
Revenir en haut Aller en bas
djn06
(VIP) Membre très important
(VIP) Membre très important
djn06

Masculin Lion Nombre de messages 9044
Age 56
Localisation Annemasse (74)
Humeur Zen
Emploi/Loisirs dessinateur

Les étapes du Dakar 2009 - Page 8 Empty
MessageSujet: Re: Les étapes du Dakar 2009   Les étapes du Dakar 2009 - Page 8 EmptySam 17 Jan 2009 - 23:33

Les étapes du Dakar 2009 - Page 8 Bonjour

c'est pour ça que je les ai mises
Revenir en haut Aller en bas
sebadive
Globe-Surfeur "Or" (niv 6)
Globe-Surfeur
sebadive

Masculin Vierge Nombre de messages 7441
Age 38
Localisation Eaubonne (val d'oise)

Les étapes du Dakar 2009 - Page 8 Empty
MessageSujet: Re: Les étapes du Dakar 2009   Les étapes du Dakar 2009 - Page 8 EmptySam 17 Jan 2009 - 23:39

Pas mal les photos. Le rallye, bon j'ai pas trop suivi (uniquement les classements posté par Willy80) donc je ne peut pas dire grand chose.

Sauf uniquement que si il envisage de rester longtemps au Chili et Argentine, il faudrait mieux qui change totalement le nom de l' épreuve et son logo.
Revenir en haut Aller en bas
willy80
Globe-Surfeur "Or" (niv 6)
Globe-Surfeur
willy80

Masculin Cancer Nombre de messages 9069
Age 73
Localisation valines _80210
Humeur curieux de tout
Emploi/Loisirs retraité

Les étapes du Dakar 2009 - Page 8 Empty
MessageSujet: Re: Les étapes du Dakar 2009   Les étapes du Dakar 2009 - Page 8 EmptyDim 18 Jan 2009 - 11:56

sujet les étapes du Dakar 2009

http://dakar.france2.fr/index-fr.php?page=news&id_article=1190

De Villiers la consécration,
Les étapes du Dakar 2009 - Page 8 Arton110





Les étapes du Dakar 2009 - Page 8 41767410
Les étapes du Dakar 2009 - Page 8 04daka10
Les étapes du Dakar 2009 - Page 8 04daka10
Les étapes du Dakar 2009 - Page 8 07daka10
Les étapes du Dakar 2009 - Page 8 14daka10
Les étapes du Dakar 2009 - Page 8 18daka10
Les étapes du Dakar 2009 - Page 8 22daka10
Les étapes du Dakar 2009 - Page 8 23daka10
Les étapes du Dakar 2009 - Page 8 25daka10
Les étapes du Dakar 2009 - Page 8 29daka10
Les étapes du Dakar 2009 - Page 8 30daka10

Après quelques années à flirter avec le succès, le Sud-Africain Giniel De Villiers a su se bonifier pour entrer dans la légende du Dakar dans la catégorie autos. De son coté, Marc Coma a retrouvé la première marche du podium chez la catégorie motos après 2006...

Résident de Stellenbosch, l’une des villes pionnières d’Afrique du sud, à 50 km du Cap, et après quelques tentatives malheureuses, De Villiers a touché le Graal, devenant le premier Africain vainqueur du Dakar, l’année même où il s’exile. Lors de ses cinq participations précédentes, il avait toujours pointé parmi les meilleurs, finissant notamment deuxième en 2006. En 2007, il avait dominé la course mais son Touareg avait cédé tout près du but (11e). "Nous avons de plus en plus faim. Plus qu’une marche à gravir !", avait-il lancé avant le départ de Buenos Aires.

Et à 36 ans, ce célibataire endurci s’est rassasié. Le Sud-Africain a su profiter des circonstances de course, les mêmes qui lui avaient souvent été défavorables les années précédentes. Accroché à son volant, il remporte la 6e étape et prend la tête de la course le soir où le Qatarien Nasser Al Attiyah, alors leader, est exclu. Six étapes plus tard, il récupère de nouveau la tête du classement le jour où son coéquipier Carlos Sainz est contraint à l’abandon sur accident.

Dès ses premiers tours de roues en 1993, il s’impose. En 2000, et après quatre années de dominations sans partage dans le Championnat de tourisme sud-africain, il quitte les circuits pour le hors-piste. En 2003, il se lance dans l’aventure du Dakar au volant d’un Nissan. Sa cinquième place est un tremplin, même s’il assure pouvoir encore progresser. De Villiers avait dit vrai.

Coma la confirmation

Les étapes du Dakar 2009 - Page 8 Arton111
Le motard Marc Coma a également la mécanique dans le sang. Issu d’une famille de motards qui a su lui injecter la passion et le talent pour les deux roues. C’est généralement génétique. Et Coma n’échappe pas à la règle. Effectivement, le Catalan pouvait difficilement échapper au virus qui a frappé les mâles de sa famille. Son père a en effet terminé cinquième des Championnats d’Espagne de moto-cross et son oncle était également un féru de deux-roues.

Il embraye logiquement sur des premières courses de village, puis des championnats régionaux et nationaux. A 18 ans, il décide d’abandonner les circuits pour se consacrer à l’enduro, avec l’objectif de devenir pilote professionnel. A 22 ans, il devient notamment champion du monde de la discipline par équipes. Mais le Dakar l’attire déjà et il se lance pour la première fois sur les pistes africaines en 2002 sur une moto fabriquée par un ancien concurrent espagnol, Carlos Sotelo. Il doit abandonner mais ses bons débuts et ses résultats lors des autres rallyes-raids lui permettent d’accrocher un guidon officiel chez KTM l’année suivante. Il termine 11e.

En 2004, une lourde chute, qui le laisse inconscient quelques instants,
l’oblige à abandonner avant l’arrivée, il insiste et se classe deuxième derrière le Français Cyril Despres l’année suivante. En 2006, Coma accroche son premier succès. Il confirme cette année n’ayant jamais été inquiété pendant cette qunizaine...

Succès populaire en Amérique du Sud

Les étapes du Dakar 2009 - Page 8 Arton112






Des centaines de spectateurs tout au long du parcours, ce premier Dakar hors d’Afrique a été une grande réussite populaire. Près de 1.5 millions de personnes ont vu passer la caravane entre l’Argentine et le Chili. Une réussite qui pourrait donner des idées pour la suite...

"Je ne pensais pas voir un tel enthousiasme", s’étonnait David Frétigné (Yamaha). "Le soutien des spectateurs a été incroyable, ahurissant", se réjouissait l’Argentin Marcos Patronelli sur son quad. Buenos Aires a été le symbole de cet engouement de masse. Après les 500 000 personnes massées au départ le 3 janvier dans les rues de la ville, ils étaient encore des milliers à saluer les rescapés lors de l’arrivée.

Chiliens et Argentins n’étaient pas seulement sur les lieux de départ ou d’arrivée. "Dans les points de ravitaillement essence en Afrique, on en profitait pour se reposer. ici, c’était pratiquement impossible avec une telle aflluence", racontait David Frétigné. Même l’altitude n’a pas douché l’euphorie, les gens montant jusqu’à 4000m pour camper et voir passer les héors au poste frontière de Paso San Francisco entre le Chili et l’Argentine. Et que dire des paysages traversés : entre espaces caillouteux de la Pampa, l’océan Pacifique et la satstion balnéaire de Valapraiso, le désert aride d’Atacama et Copiapo, sans oublier la Cordillère des Andes et un passage (en liaison) à 4800m, les concurrents de ce Dakar-2009 ont connu une véritable cure de jouvence visuelle.

La réussite populaire semble en plus être doublée d’un succès financier pour l’économie locale, de premières estimations faisant état d’une manne de 30 millions de dollars. "La succès a été inimaginable. Il y a eu des milliers d’articles dans la presse mondiale et il s’est agi, historiquement, de la meilleure campagne de promotion du tourisme pour l’Argentine" s’est félicité le secrétaire d’Etat argentin au Tourisme, Enrique Meyer.



par Thierry Taze-Bernard
Copyright photo ©️ DR

http://dakar.france2.fr/index-fr.php?page=news&id_article=1130

2010 en Amsud ou à l’est du Maghreb


Les étapes du Dakar 2009 - Page 8 Arton113






Le rallye se déroulera soit en Argentine et au Chili, hôtes de l’édition 2009, soit dans les pays de l’est du Maghreb comme la Tunisie et la Libye, a annoncé Roger Kalmanovitz, chargé des relations extérieures en Afrique et de la sécurité du rallye.

"On est plutôt dans ces dossiers-là. Il est effectivement imaginable que le Dakar 2010 se tourne vers des pays qui ont déjà accueilli (l’épreuve) comme la Libye et la Tunisie. Mais on n’est pas encore dans le concret", a affirmé le "Monsieur Afrique" du Dakar en évoquant les deux scénarios les plus probables.

Alors que l’annonce du Dakar 2010 pourrait avoir lieu fin février, Kalmanovitz a confirmé qu’un retour dans les "pays traditionnels", comme la Mauritanie, l’Algérie, le Maroc, le Sénégal, serait difficile l’année prochaine. "La situation qui a conduit à l’annulation du Dakar il y a un an est pire aujourd’hui. Donc en janvier 2009, on ne peut pas dire qu’on va revenir dans l’Afrique traditionnelle (du Dakar)", a déclaré Kalmanovitz.

Il a aussi écarté une quatrième piste, l’Afrique australe, déjà parcourue lors du Dakar 1992, disputé entre Paris et Le Cap. "On a réalisé une mission en Afrique australe, en Angola, en Afrique du Sud, en Namibie et au Botswana. Mais nous sommes sur du long terme car cela se prépare à l’avance". En 2003, l’épreuve, partie de Marseille, s’était ensuite déroulée en Espagne, en Tunisie, en Libye pour finir en Egypte. Le Dakar 2008, qui devait traverser le Maroc, la Mauritanie et le Sénégal, avait été annulé à la veille du départ, à la suite de menaces terroristes.



par Grégory Jouin
Revenir en haut Aller en bas
Contenu sponsorisé




Les étapes du Dakar 2009 - Page 8 Empty
MessageSujet: Re: Les étapes du Dakar 2009   Les étapes du Dakar 2009 - Page 8 Empty

Revenir en haut Aller en bas
 
Les étapes du Dakar 2009
Voir le sujet précédent Voir le sujet suivant Revenir en haut 
 
 
 
Sujets similaires
-
» 2009: le 17 /03 à 20h10 - 2 points lumineux se rejoignent/nevers (58)
» Les étapes d'une révolution...
» [SOUVENIR] INSEA .. L'art de bizuter !! 2008/2009
» Nombre de postes en 2009
» Semaine du 12 au 18 janvier 2009
Page 8 sur 8Aller à la page : Précédent  1, 2, 3, 4, 5, 6, 7, 8

Permission de ce forum:Vous ne pouvez pas répondre aux sujets dans ce forum
Tout sur Google Earth & Maps :: Google Earth :: Sujets thématiques :: Sport & activités ludiques-
 
 
Sauter vers: